createdAt,value
2023-03-05T00:01:18.113Z,71.69
2023-03-05T00:03:45.450Z,71.40
2023-03-05T00:06:12.366Z,71.74
2023-03-05T00:08:39.209Z,70.97
2023-03-05T00:11:10.164Z,71.04
2023-03-05T00:13:37.734Z,70.81
2023-03-05T00:16:09.902Z,70.90
2023-03-05T00:18:37.265Z,70.54
2023-03-05T00:21:05.032Z,70.72
2023-03-05T00:23:31.522Z,70.79
2023-03-05T00:26:02.224Z,70.54
2023-03-05T00:28:28.920Z,71.04
2023-03-05T00:31:00.246Z,71.21
2023-03-05T00:33:26.816Z,71.09
2023-03-05T00:35:54.227Z,72.01
2023-03-05T00:38:21.120Z,71.27
2023-03-05T00:40:50.363Z,71.35
2023-03-05T00:43:17.185Z,70.54
2023-03-05T00:45:44.269Z,71.08
2023-03-05T00:48:11.869Z,71.56
2023-03-05T00:50:38.685Z,71.63
2023-03-05T00:53:05.901Z,71.02
2023-03-05T00:55:32.401Z,70.43
2023-03-05T00:57:58.908Z,70.96
2023-03-05T01:00:25.724Z,70.19
2023-03-05T01:02:52.158Z,70.32
2023-03-05T01:05:18.858Z,70.10
2023-03-05T01:07:45.440Z,69.80
2023-03-05T01:10:12.686Z,70.19
2023-03-05T01:12:39.631Z,69.51
2023-03-05T01:15:06.819Z,69.25
2023-03-05T01:17:33.449Z,69.19
2023-03-05T01:20:00.141Z,69.35
2023-03-05T01:22:26.693Z,69.32
2023-03-05T01:24:53.146Z,69.90
2023-03-05T01:27:19.707Z,68.75
2023-03-05T01:29:46.234Z,69.18
2023-03-05T01:32:13.029Z,68.64
2023-03-05T01:34:39.697Z,68.62
2023-03-05T01:37:06.268Z,68.33
2023-03-05T01:39:32.717Z,68.27
2023-03-05T01:41:59.289Z,68.26
2023-03-05T01:44:28.586Z,68.16
2023-03-05T01:46:55.506Z,67.09
2023-03-05T01:49:32.434Z,66.16
2023-03-05T01:52:18.065Z,66.72
2023-03-05T01:54:53.836Z,66.97
2023-03-05T01:57:23.723Z,65.63
2023-03-05T01:59:53.219Z,65.36
2023-03-05T02:02:22.128Z,65.46
2023-03-05T02:04:59.329Z,65.14
2023-03-05T02:07:26.375Z,65.28
2023-03-05T02:09:53.020Z,65.21
2023-03-05T02:12:20.116Z,64.53
2023-03-05T02:14:48.865Z,64.96
2023-03-05T02:17:15.878Z,64.86
2023-03-05T02:19:57.040Z,65.56
2023-03-05T02:22:24.553Z,65.08
2023-03-05T02:24:51.797Z,64.37
2023-03-05T02:27:23.139Z,65.39
2023-03-05T02:29:50.437Z,65.33
2023-03-05T02:32:17.002Z,66.05
2023-03-05T02:34:43.681Z,65.43
2023-03-05T02:37:10.743Z,65.84
2023-03-05T02:39:38.036Z,65.28
2023-03-05T02:42:04.786Z,65.73
2023-03-05T02:44:31.508Z,66.72
2023-03-05T02:46:58.327Z,65.56
2023-03-05T02:49:25.096Z,66.44
2023-03-05T02:51:51.887Z,65.54
2023-03-05T02:54:18.450Z,64.98
2023-03-05T02:56:45.022Z,65.79
2023-03-05T02:59:11.588Z,65.25
2023-03-05T03:01:38.226Z,65.11
2023-03-05T03:04:04.856Z,65.25
2023-03-05T03:06:31.533Z,65.06
2023-03-05T03:08:58.251Z,65.60
2023-03-05T03:11:25.204Z,64.95
2023-03-05T03:13:51.833Z,65.53
2023-03-05T03:16:18.707Z,65.25
2023-03-05T03:18:47.498Z,65.39
2023-03-05T03:21:22.610Z,64.76
2023-03-05T03:23:49.214Z,64.71
2023-03-05T03:26:15.934Z,64.90
2023-03-05T03:28:43.024Z,64.07
2023-03-05T03:31:09.606Z,64.59
2023-03-05T03:33:36.219Z,64.63
2023-03-05T03:36:04.292Z,64.83
2023-03-05T03:38:31.560Z,64.89
2023-03-05T03:40:58.160Z,63.70
2023-03-05T03:43:24.900Z,64.28
2023-03-05T03:45:51.463Z,63.87
2023-03-05T03:48:18.112Z,64.69
2023-03-05T03:50:44.686Z,64.40
2023-03-05T03:53:14.429Z,63.87
2023-03-05T03:55:46.568Z,64.19
2023-03-05T03:58:13.255Z,64.28
2023-03-05T04:00:40.733Z,64.51
2023-03-05T04:03:07.891Z,64.31
2023-03-05T04:05:34.422Z,64.83
2023-03-05T04:08:01.463Z,64.50
2023-03-05T04:10:27.949Z,64.25
2023-03-05T04:12:54.402Z,64.66
2023-03-05T04:15:21.001Z,64.87
2023-03-05T04:17:47.480Z,64.19
2023-03-05T04:20:13.894Z,64.37
2023-03-05T04:22:40.391Z,64.80
2023-03-05T04:25:08.394Z,64.82
2023-03-05T04:27:36.057Z,65.10
2023-03-05T04:30:02.499Z,65.31
2023-03-05T04:32:29.981Z,64.74
2023-03-05T04:34:57.258Z,65.44
2023-03-05T04:37:25.426Z,65.61
2023-03-05T04:39:52.675Z,65.45
2023-03-05T04:42:20.156Z,65.78
2023-03-05T04:44:48.337Z,66.51
2023-03-05T04:47:15.455Z,66.69
2023-03-05T04:49:42.016Z,67.10
2023-03-05T04:52:08.896Z,67.47
2023-03-05T04:54:35.409Z,67.70
2023-03-05T04:57:01.995Z,68.63
2023-03-05T04:59:28.580Z,69.38
2023-03-05T05:01:55.532Z,70.54
2023-03-05T05:04:22.156Z,71.26
2023-03-05T05:06:48.837Z,72.16
2023-03-05T05:09:15.328Z,73.06
2023-03-05T05:11:41.842Z,74.57
2023-03-05T05:14:08.385Z,74.55
2023-03-05T05:16:35.027Z,74.81
2023-03-05T05:19:01.563Z,75.19
2023-03-05T05:21:28.109Z,74.66
2023-03-05T05:23:54.599Z,75.26
2023-03-05T05:26:21.251Z,75.31
2023-03-05T05:28:47.756Z,75.91
2023-03-05T05:31:15.822Z,75.53
2023-03-05T05:33:42.928Z,75.08
2023-03-05T05:36:12.478Z,75.04
2023-03-05T05:38:39.306Z,74.47
2023-03-05T05:41:11.233Z,75.05
2023-03-05T05:43:37.824Z,74.56
2023-03-05T05:46:07.227Z,73.75
2023-03-05T05:48:34.953Z,73.79
2023-03-05T05:51:07.004Z,73.43
2023-03-05T05:53:33.921Z,72.57
2023-03-05T05:56:00.560Z,73.09
2023-03-05T05:58:27.044Z,73.07
2023-03-05T06:00:53.583Z,72.77
2023-03-05T06:03:20.128Z,72.33
2023-03-05T06:05:47.640Z,72.28
2023-03-05T06:08:14.888Z,72.16
2023-03-05T06:10:41.422Z,71.75
2023-03-05T06:13:07.893Z,71.69
2023-03-05T06:15:34.315Z,71.35
2023-03-05T06:18:01.041Z,71.56
2023-03-05T06:20:28.407Z,70.39
2023-03-05T06:22:55.552Z,70.38
2023-03-05T06:25:22.051Z,69.99
2023-03-05T06:27:48.587Z,68.87
2023-03-05T06:30:15.187Z,68.79
2023-03-05T06:32:41.992Z,68.37
2023-03-05T06:35:09.097Z,67.92
2023-03-05T06:37:35.675Z,67.94
2023-03-05T06:40:02.157Z,67.57
2023-03-05T06:42:28.674Z,67.41
2023-03-05T06:44:55.071Z,67.03
2023-03-05T06:47:21.567Z,67.01
2023-03-05T06:49:48.094Z,67.48
2023-03-05T06:52:14.623Z,67.17
2023-03-05T06:54:41.161Z,66.98
2023-03-05T06:57:07.595Z,67.10
2023-03-05T06:59:34.085Z,68.08
2023-03-05T07:02:00.867Z,69.62
2023-03-05T07:04:27.428Z,69.77
2023-03-05T07:06:54.326Z,69.16
2023-03-05T07:09:20.745Z,69.70
2023-03-05T07:11:47.210Z,71.07
2023-03-05T07:14:13.836Z,71.48
2023-03-05T07:16:40.522Z,71.48
2023-03-05T07:19:07.876Z,71.37
2023-03-05T07:21:36.374Z,72.20
2023-03-05T07:24:04.561Z,72.37
2023-03-05T07:26:33.311Z,73.04
2023-03-05T07:29:00.363Z,73.00
2023-03-05T07:31:30.929Z,73.59
2023-03-05T07:34:09.046Z,74.38
2023-03-05T07:36:35.636Z,74.21
2023-03-05T07:39:02.678Z,74.49
2023-03-05T07:41:29.413Z,73.90
2023-03-05T07:43:56.016Z,74.11
2023-03-05T07:46:27.741Z,73.30
2023-03-05T07:48:55.232Z,72.38
2023-03-05T07:51:22.903Z,71.50
2023-03-05T07:53:50.589Z,71.80
2023-03-05T07:56:24.316Z,71.21
2023-03-05T07:58:50.906Z,71.92
2023-03-05T08:01:17.793Z,71.18
2023-03-05T08:03:44.850Z,70.80
2023-03-05T08:06:12.568Z,71.66
2023-03-05T08:08:39.478Z,72.19
2023-03-05T08:11:07.835Z,72.34
2023-03-05T08:13:34.651Z,75.44
2023-03-05T08:16:10.160Z,76.71
2023-03-05T08:18:36.893Z,78.42
2023-03-05T08:21:04.960Z,79.08
2023-03-05T08:23:31.567Z,78.13
2023-03-05T08:25:58.002Z,76.81
2023-03-05T08:28:24.632Z,76.14
2023-03-05T08:30:51.336Z,71.66
2023-03-05T08:33:18.340Z,69.24
2023-03-05T08:35:45.312Z,67.25
2023-03-05T08:38:11.849Z,66.61
2023-03-05T08:40:38.294Z,67.07
2023-03-05T08:43:05.876Z,67.44
2023-03-05T08:45:32.398Z,68.84
2023-03-05T08:47:59.851Z,69.41
2023-03-05T08:50:26.493Z,69.59
2023-03-05T08:52:53.132Z,69.56
2023-03-05T08:55:19.574Z,70.06
2023-03-05T08:57:46.287Z,71.17
2023-03-05T09:00:13.877Z,70.92
2023-03-05T09:02:40.533Z,72.02
2023-03-05T09:05:07.839Z,74.23
2023-03-05T09:07:34.310Z,76.67
2023-03-05T09:10:01.870Z,76.93
2023-03-05T09:12:28.404Z,77.98
2023-03-05T09:14:55.538Z,79.28
2023-03-05T09:17:22.695Z,78.67
2023-03-05T09:19:49.960Z,79.75
2023-03-05T09:22:17.232Z,81.40
2023-03-05T09:24:44.089Z,82.28
2023-03-05T09:27:10.695Z,83.12
2023-03-05T09:29:37.302Z,83.52
2023-03-05T09:32:03.922Z,83.64
2023-03-05T09:34:30.445Z,83.66
2023-03-05T09:36:56.877Z,84.02
2023-03-05T09:39:23.723Z,84.12
2023-03-05T09:42:27.308Z,83.10
2023-03-05T09:45:18.257Z,81.29
2023-03-05T09:48:12.761Z,80.40
2023-03-05T09:51:03.499Z,77.84
2023-03-05T09:53:45.308Z,77.94
2023-03-05T09:56:36.069Z,75.79
2023-03-05T09:59:17.674Z,75.39
2023-03-05T10:01:44.730Z,72.99
2023-03-05T10:04:38.982Z,71.89
2023-03-05T10:07:15.698Z,70.98
2023-03-05T10:10:14.523Z,70.57
2023-03-05T10:12:43.336Z,73.00
2023-03-05T10:15:16.018Z,71.64
2023-03-05T10:18:04.038Z,69.96
2023-03-05T10:20:49.759Z,69.02
2023-03-05T10:23:29.634Z,67.07
2023-03-05T10:26:38.422Z,67.26
2023-03-05T10:29:20.630Z,63.98
2023-03-05T10:32:15.458Z,62.50
2023-03-05T10:34:49.410Z,59.85
2023-03-05T10:37:32.645Z,56.46
2023-03-05T10:40:14.853Z,54.86
2023-03-05T10:42:50.515Z,54.49
2023-03-05T10:45:21.157Z,52.33
2023-03-05T10:47:52.511Z,49.16
2023-03-05T10:50:25.533Z,48.77
2023-03-05T10:53:01.365Z,52.34
2023-03-05T10:55:28.134Z,54.29
2023-03-05T10:57:55.788Z,56.71
2023-03-05T11:00:24.502Z,57.77
2023-03-05T11:03:02.983Z,59.39
2023-03-05T11:05:38.531Z,59.82
2023-03-05T11:08:28.212Z,60.54
2023-03-05T11:11:10.110Z,59.73
2023-03-05T11:13:58.709Z,59.79
2023-03-05T11:16:28.717Z,60.40
2023-03-05T11:19:33.025Z,60.95
2023-03-05T11:22:08.271Z,60.25
2023-03-05T11:24:34.818Z,60.32
2023-03-05T11:27:01.437Z,61.99
2023-03-05T11:29:30.423Z,61.60
2023-03-05T11:32:16.372Z,62.15
2023-03-05T11:34:43.367Z,61.47
2023-03-05T11:37:21.807Z,61.33
2023-03-05T11:39:48.262Z,61.25
2023-03-05T11:42:24.721Z,60.20
2023-03-05T11:44:55.956Z,58.91
2023-03-05T11:47:25.757Z,59.86
2023-03-05T11:50:30.532Z,59.85
2023-03-05T11:53:18.930Z,58.58
2023-03-05T11:56:03.629Z,59.83
2023-03-05T11:58:44.249Z,60.66
2023-03-05T12:01:16.641Z,61.99
2023-03-05T12:03:44.005Z,61.96
2023-03-05T12:06:23.928Z,63.10
2023-03-05T12:08:55.512Z,65.36
2023-03-05T12:11:32.030Z,66.69
2023-03-05T12:14:04.770Z,67.96
2023-03-05T12:16:37.953Z,66.97
2023-03-05T12:19:32.801Z,67.37
2023-03-05T12:22:00.013Z,67.38
2023-03-05T12:24:28.310Z,67.63
2023-03-05T12:27:04.695Z,68.38
2023-03-05T12:29:37.550Z,67.10
2023-03-05T12:32:05.118Z,68.72
2023-03-05T12:34:40.696Z,69.07
2023-03-05T12:37:36.284Z,68.22
2023-03-05T12:40:08.618Z,66.69
2023-03-05T12:42:35.710Z,66.88
2023-03-05T12:45:15.918Z,67.80
2023-03-05T12:47:45.019Z,67.66
2023-03-05T12:50:26.938Z,67.90
2023-03-05T12:53:13.226Z,68.56
2023-03-05T12:55:48.636Z,66.22
2023-03-05T12:58:28.587Z,67.10
2023-03-05T13:01:03.238Z,67.65
2023-03-05T13:03:40.536Z,66.33
2023-03-05T13:06:08.225Z,66.04
2023-03-05T13:08:36.142Z,65.70
2023-03-05T13:11:04.358Z,65.27
2023-03-05T13:13:33.628Z,65.12
2023-03-05T13:16:00.946Z,65.29
2023-03-05T13:18:29.629Z,64.72
2023-03-05T13:21:08.581Z,64.25
2023-03-05T13:23:35.794Z,65.38
2023-03-05T13:26:15.120Z,65.78
2023-03-05T13:28:44.259Z,66.33
2023-03-05T13:31:18.596Z,65.38
2023-03-05T13:33:54.396Z,65.95
2023-03-05T13:36:22.714Z,66.19
2023-03-05T13:38:49.506Z,65.85
2023-03-05T13:41:16.029Z,66.50
2023-03-05T13:43:51.283Z,67.13
2023-03-05T13:46:35.473Z,67.25
2023-03-05T13:49:37.685Z,68.50
2023-03-05T13:52:04.643Z,68.79
2023-03-05T13:54:32.029Z,68.95
2023-03-05T13:57:07.304Z,69.10
2023-03-05T13:59:39.124Z,70.03
2023-03-05T14:02:17.116Z,70.30
2023-03-05T14:04:44.651Z,70.50
2023-03-05T14:07:20.376Z,70.68
2023-03-05T14:09:52.071Z,71.33
2023-03-05T14:12:37.249Z,71.79
2023-03-05T14:15:20.547Z,72.86
2023-03-05T14:17:46.983Z,74.73
2023-03-05T14:20:13.452Z,76.72
2023-03-05T14:22:42.000Z,77.58
2023-03-05T14:25:29.276Z,77.87
2023-03-05T14:27:57.071Z,77.75
2023-03-05T14:30:24.312Z,77.85
2023-03-05T14:32:53.218Z,78.22
2023-03-05T14:35:22.284Z,76.69
2023-03-05T14:37:50.859Z,77.80
2023-03-05T14:40:29.912Z,77.00
2023-03-05T14:43:01.265Z,76.94
2023-03-05T14:45:32.701Z,76.91
2023-03-05T14:48:01.051Z,76.20
2023-03-05T14:50:33.087Z,77.21
2023-03-05T14:53:02.057Z,77.62
2023-03-05T14:55:33.861Z,78.88
2023-03-05T14:58:15.086Z,81.17
2023-03-05T15:00:42.813Z,82.15
2023-03-05T15:03:13.618Z,83.38
2023-03-05T15:05:41.374Z,83.75
2023-03-05T15:08:14.233Z,84.42
2023-03-05T15:10:40.839Z,84.48
2023-03-05T15:13:08.785Z,84.35
2023-03-05T15:15:35.296Z,84.51
2023-03-05T15:18:01.905Z,84.97
2023-03-05T15:20:30.040Z,84.81
2023-03-05T15:22:56.570Z,84.72
2023-03-05T15:25:24.328Z,84.53
2023-03-05T15:27:51.006Z,84.36
2023-03-05T15:30:29.974Z,84.51
2023-03-05T15:32:57.931Z,84.17
2023-03-05T15:35:25.086Z,84.29
2023-03-05T15:37:52.310Z,84.35
2023-03-05T15:40:19.397Z,83.97
2023-03-05T15:42:45.927Z,83.92
2023-03-05T15:45:12.694Z,83.75
2023-03-05T15:47:39.208Z,83.52
2023-03-05T15:50:06.456Z,83.60
2023-03-05T15:52:33.104Z,83.94
2023-03-05T15:55:00.646Z,83.62
2023-03-05T15:57:28.302Z,83.75
2023-03-05T15:59:55.053Z,83.81
2023-03-05T16:02:21.624Z,84.17
2023-03-05T16:04:48.112Z,85.04
2023-03-05T16:07:15.402Z,84.65
2023-03-05T16:09:45.018Z,84.10
2023-03-05T16:12:15.146Z,84.50
2023-03-05T16:14:42.356Z,83.56
2023-03-05T16:17:09.095Z,83.59
2023-03-05T16:19:37.373Z,83.15
2023-03-05T16:22:04.118Z,83.51
2023-03-05T16:24:30.823Z,83.55
2023-03-05T16:26:57.415Z,83.75
2023-03-05T16:29:24.201Z,83.55
2023-03-05T16:31:50.682Z,83.76
2023-03-05T16:34:18.762Z,83.43
2023-03-05T16:36:50.866Z,83.47
2023-03-05T16:39:17.438Z,83.81
2023-03-05T16:41:43.847Z,83.54
2023-03-05T16:44:10.944Z,84.05
2023-03-05T16:46:37.913Z,83.24
2023-03-05T16:49:05.113Z,83.62
2023-03-05T16:51:31.589Z,83.26
2023-03-05T16:53:58.117Z,82.89
2023-03-05T16:56:24.732Z,83.22
2023-03-05T16:58:53.356Z,83.36
2023-03-05T17:01:21.725Z,82.62
2023-03-05T17:03:48.386Z,81.66
2023-03-05T17:06:23.606Z,81.38
2023-03-05T17:08:51.125Z,81.98
2023-03-05T17:11:18.390Z,81.49
2023-03-05T17:13:47.082Z,79.95
2023-03-05T17:16:16.565Z,80.25
2023-03-05T17:18:43.052Z,79.53
2023-03-05T17:21:10.057Z,78.96
2023-03-05T17:23:37.118Z,78.70
2023-03-05T17:26:09.131Z,78.75
2023-03-05T17:28:36.203Z,78.43
2023-03-05T17:31:03.965Z,76.85
2023-03-05T17:33:32.239Z,76.22
2023-03-05T17:35:59.432Z,76.36
2023-03-05T17:38:26.923Z,75.89
2023-03-05T17:40:53.564Z,74.30
2023-03-05T17:43:20.213Z,75.51
2023-03-05T17:45:47.287Z,74.99
2023-03-05T17:48:15.228Z,73.96
2023-03-05T17:50:42.195Z,73.19
2023-03-05T17:53:09.683Z,74.64
2023-03-05T17:55:36.190Z,74.75
2023-03-05T17:58:02.905Z,74.61
2023-03-05T18:00:30.436Z,74.59
2023-03-05T18:02:58.578Z,74.79
2023-03-05T18:05:25.450Z,75.18
2023-03-05T18:07:52.824Z,74.88
2023-03-05T18:10:20.779Z,74.62
2023-03-05T18:12:47.519Z,74.24
2023-03-05T18:15:17.080Z,74.11
2023-03-05T18:17:43.946Z,74.13
2023-03-05T18:20:24.069Z,74.92
2023-03-05T18:22:50.601Z,74.60
2023-03-05T18:25:17.293Z,74.86
2023-03-05T18:27:43.740Z,76.20
2023-03-05T18:30:11.157Z,75.83
2023-03-05T18:32:38.113Z,77.05
2023-03-05T18:35:06.198Z,76.79
2023-03-05T18:37:32.638Z,77.68
2023-03-05T18:39:59.142Z,78.71
2023-03-05T18:42:25.895Z,79.94
2023-03-05T18:44:52.371Z,81.25
2023-03-05T18:47:18.908Z,82.04
2023-03-05T18:49:45.327Z,83.88
2023-03-05T18:52:12.483Z,83.49
2023-03-05T18:54:40.165Z,84.63
2023-03-05T18:57:06.691Z,84.62
2023-03-05T18:59:33.123Z,84.86
2023-03-05T19:01:59.705Z,85.21
2023-03-05T19:04:27.658Z,85.78
2023-03-05T19:06:54.203Z,85.74
2023-03-05T19:09:30.936Z,85.92
2023-03-05T19:11:57.464Z,86.12
2023-03-05T19:14:24.323Z,86.18
2023-03-05T19:16:51.788Z,86.19
2023-03-05T19:19:25.370Z,85.83
2023-03-05T19:21:58.682Z,86.72
2023-03-05T19:24:28.130Z,86.86
2023-03-05T19:26:56.085Z,86.47
2023-03-05T19:29:23.939Z,86.28
2023-03-05T19:31:51.349Z,86.77
2023-03-05T19:34:18.869Z,86.64
2023-03-05T19:36:45.363Z,85.97
2023-03-05T19:39:11.870Z,86.44
2023-03-05T19:41:38.768Z,86.34
2023-03-05T19:44:06.128Z,86.60
2023-03-05T19:46:32.956Z,87.40
2023-03-05T19:48:59.581Z,87.52
2023-03-05T19:51:26.640Z,87.59
2023-03-05T19:53:53.216Z,87.19
2023-03-05T19:56:19.876Z,87.20
2023-03-05T19:58:48.948Z,86.94
2023-03-05T20:01:26.867Z,87.21
2023-03-05T20:03:55.673Z,87.16
2023-03-05T20:06:23.166Z,87.57
2023-03-05T20:08:50.107Z,87.53
2023-03-05T20:11:18.846Z,86.61
2023-03-05T20:13:45.765Z,86.64
2023-03-05T20:16:21.858Z,86.85
2023-03-05T20:18:52.716Z,87.25
2023-03-05T20:21:23.081Z,87.08
2023-03-05T20:23:54.036Z,87.08
2023-03-05T20:26:21.627Z,87.20
2023-03-05T20:28:49.483Z,87.59
2023-03-05T20:31:21.347Z,86.92
2023-03-05T20:33:48.662Z,87.88
2023-03-05T20:36:15.259Z,87.87
2023-03-05T20:38:42.008Z,87.72
2023-03-05T20:41:11.532Z,88.03
2023-03-05T20:43:43.486Z,88.20
2023-03-05T20:46:17.489Z,86.61
2023-03-05T20:48:45.881Z,87.21
2023-03-05T20:51:14.666Z,87.26
2023-03-05T20:53:41.607Z,87.93
2023-03-05T20:56:08.204Z,88.33
2023-03-05T20:58:34.964Z,88.25
2023-03-05T21:01:02.028Z,88.83
2023-03-05T21:03:28.541Z,87.88
2023-03-05T21:05:57.080Z,88.18
2023-03-05T21:08:24.061Z,88.43
2023-03-05T21:10:50.975Z,89.15
2023-03-05T21:13:17.586Z,89.14
2023-03-05T21:15:44.213Z,88.86
2023-03-05T21:18:11.204Z,89.27
2023-03-05T21:20:37.688Z,89.12
2023-03-05T21:23:04.220Z,88.83
2023-03-05T21:25:32.187Z,88.83
2023-03-05T21:28:02.019Z,86.38
2023-03-05T21:30:43.584Z,86.72
2023-03-05T21:33:15.847Z,85.83
2023-03-05T21:35:43.063Z,85.14
2023-03-05T21:38:14.091Z,85.38
2023-03-05T21:40:45.382Z,85.50
2023-03-05T21:43:13.016Z,85.46
2023-03-05T21:45:40.453Z,85.00
2023-03-05T21:48:07.981Z,84.85
2023-03-05T21:50:35.309Z,83.90
2023-03-05T21:53:03.085Z,84.20
2023-03-05T21:55:35.987Z,84.47
2023-03-05T21:58:02.551Z,85.14
2023-03-05T22:00:29.460Z,84.02
2023-03-05T22:02:56.040Z,83.91
2023-03-05T22:05:22.606Z,84.64
2023-03-05T22:07:49.138Z,84.00
2023-03-05T22:10:17.564Z,83.47
2023-03-05T22:13:06.720Z,83.44
2023-03-05T22:15:34.159Z,82.85
2023-03-05T22:18:00.872Z,82.52
2023-03-05T22:20:27.351Z,81.65
2023-03-05T22:22:53.890Z,82.16
2023-03-05T22:25:20.722Z,82.30
2023-03-05T22:27:47.213Z,79.86
2023-03-05T22:30:14.026Z,80.32
2023-03-05T22:32:41.326Z,79.86
2023-03-05T22:35:11.499Z,79.46
2023-03-05T22:37:37.924Z,79.53
2023-03-05T22:40:04.909Z,79.06
2023-03-05T22:42:31.341Z,79.87
2023-03-05T22:44:58.878Z,79.80
2023-03-05T22:47:27.088Z,80.24
2023-03-05T22:49:53.682Z,78.86
2023-03-05T22:52:20.243Z,79.42
2023-03-05T22:54:46.815Z,79.57
2023-03-05T22:57:13.353Z,79.08
2023-03-05T22:59:39.968Z,78.73
2023-03-05T23:02:06.441Z,78.72
2023-03-05T23:04:49.755Z,78.61
2023-03-05T23:07:18.267Z,77.59
2023-03-05T23:09:45.159Z,78.37
2023-03-05T23:12:12.158Z,77.74
2023-03-05T23:14:38.714Z,77.70
2023-03-05T23:17:05.636Z,78.04
2023-03-05T23:19:39.493Z,77.92
2023-03-05T23:22:07.812Z,78.38
2023-03-05T23:24:34.883Z,78.31
2023-03-05T23:27:01.965Z,77.43
2023-03-05T23:29:30.292Z,76.89
2023-03-05T23:31:56.800Z,76.95
2023-03-05T23:34:23.287Z,77.17
2023-03-05T23:36:49.704Z,78.08
2023-03-05T23:39:16.230Z,77.15
2023-03-05T23:41:42.798Z,78.00
2023-03-05T23:44:09.317Z,76.65
2023-03-05T23:46:35.822Z,76.94
2023-03-05T23:49:02.550Z,77.20
2023-03-05T23:51:29.094Z,77.11
2023-03-05T23:53:55.928Z,77.37
2023-03-05T23:56:22.400Z,76.43
2023-03-05T23:58:49.025Z,76.69
